Time;durP1;ratioP1;P1;durP2;ratioP2;P2;SDS_P1;SDS_P2;PMS_P1;PMS_P2;Temp;Humidity;BMP_temperature;BMP_pressure;BME280_temperature;BME280_humidity;BME280_pressure;Samples;Min_cycle;Max_cycle;Signal;HPM_P1;HPM_P2
2022/06/29 00:00:05;;;;;;;4.68;1.67;;;17.90;96.70;;;;;;5063904;28;20039;-77
2022/06/29 00:02:31;;;;;;;4.80;1.60;;;17.80;96.70;;;;;;5080908;28;20062;-77
2022/06/29 00:04:56;;;;;;;4.93;1.60;;;17.80;96.70;;;;;;5081076;28;20479;-77
2022/06/29 00:07:22;;;;;;;2.72;1.50;;;17.80;96.70;;;;;;5080648;28;20054;-77
2022/06/29 00:09:47;;;;;;;4.60;1.88;;;17.80;96.70;;;;;;5080606;28;20500;-77
2022/06/29 00:12:13;;;;;;;4.03;1.95;;;17.80;96.70;;;;;;5080409;28;20105;-77
2022/06/29 00:14:41;;;;;;;3.50;1.60;;;17.80;96.70;;;;;;5047333;28;20032;-77
2022/06/29 00:17:17;;;;;;;3.30;1.50;;;17.70;96.70;;;;;;5048277;28;20036;-77
2022/06/29 00:19:43;;;;;;;4.15;1.65;;;17.70;96.70;;;;;;5097341;28;20149;-77
2022/06/29 00:22:10;;;;;;;3.75;1.60;;;17.70;96.80;;;;;;5080829;28;20174;-77
2022/06/29 00:24:35;;;;;;;2.10;1.30;;;17.70;96.80;;;;;;5063813;28;20040;-77
2022/06/29 00:27:02;;;;;;;3.65;1.63;;;17.70;96.80;;;;;;5063663;28;20046;-77
2022/06/29 00:29:28;;;;;;;2.78;1.40;;;17.70;96.80;;;;;;5079746;28;20043;-77
2022/06/29 00:31:55;;;;;;;9.15;2.08;;;17.70;97.00;;;;;;5080296;28;20035;-77
2022/06/29 00:34:21;;;;;;;7.30;1.63;;;17.70;97.00;;;;;;5080061;28;20079;-77
2022/06/29 00:36:47;;;;;;;3.72;1.33;;;17.60;97.20;;;;;;5063333;28;20035;-77
2022/06/29 00:39:13;;;;;;;4.22;1.70;;;17.60;97.00;;;;;;5062881;28;20042;-78
2022/06/29 00:41:40;;;;;;;4.25;1.50;;;17.60;97.10;;;;;;5047197;28;20051;-77
2022/06/29 00:44:07;;;;;;;4.53;1.58;;;17.60;97.30;;;;;;5080443;28;20047;-77
2022/06/29 00:46:34;;;;;;;4.20;1.55;;;17.60;97.30;;;;;;5096901;28;20040;-78
2022/06/29 00:49:00;;;;;;;3.78;1.40;;;17.60;97.50;;;;;;5047125;28;20184;-77
2022/06/29 00:51:29;;;;;;;3.63;1.30;;;17.60;97.40;;;;;;5079871;28;20122;-77
2022/06/29 00:53:56;;;;;;;3.30;1.50;;;17.60;97.40;;;;;;5080345;28;20047;-77
2022/06/29 00:56:22;;;;;;;10.77;1.50;;;17.60;97.40;;;;;;5063262;28;20040;-77
2022/06/29 00:58:50;;;;;;;3.22;1.48;;;17.50;97.40;;;;;;5079940;28;20437;-77
2022/06/29 01:01:17;;;;;;;3.47;1.30;;;17.50;97.40;;;;;;5079717;28;20035;-77
2022/06/29 01:03:43;;;;;;;6.40;1.80;;;17.50;97.50;;;;;;5046505;28;20040;-77
2022/06/29 01:06:09;;;;;;;3.83;1.55;;;17.50;97.50;;;;;;5062893;28;20507;-77
2022/06/29 01:08:35;;;;;;;3.58;1.42;;;17.50;97.60;;;;;;5079969;28;20082;-77
2022/06/29 01:11:00;;;;;;;4.07;1.33;;;17.40;97.60;;;;;;5079434;28;20526;-77
2022/06/29 01:13:26;;;;;;;4.25;1.67;;;17.40;97.70;;;;;;5063033;28;20126;-77
2022/06/29 01:15:52;;;;;;;5.22;1.70;;;17.40;98.10;;;;;;5079502;28;20035;-77
2022/06/29 01:18:18;;;;;;;3.80;1.63;;;17.40;97.90;;;;;;5062767;28;20046;-77
2022/06/29 01:20:44;;;;;;;2.65;1.38;;;17.40;98.00;;;;;;5062759;28;20038;-77
2022/06/29 01:23:10;;;;;;;3.00;1.80;;;17.30;98.10;;;;;;5062691;28;20035;-77
2022/06/29 01:25:35;;;;;;;3.17;2.00;;;17.30;98.40;;;;;;5079362;28;20101;-77
2022/06/29 01:28:01;;;;;;;2.42;1.50;;;17.30;98.20;;;;;;5045895;28;20074;-77
2022/06/29 01:30:27;;;;;;;3.38;1.70;;;17.30;98.20;;;;;;5079380;28;20047;-77
2022/06/29 01:32:53;;;;;;;2.97;1.40;;;17.20;98.30;;;;;;5078957;28;20067;-77
2022/06/29 01:35:22;;;;;;;3.30;1.67;;;17.20;98.50;;;;;;5062444;28;20067;-77
2022/06/29 01:37:48;;;;;;;3.22;1.70;;;17.20;98.60;;;;;;5079762;28;20368;-77
2022/06/29 01:40:14;;;;;;;2.60;1.50;;;17.20;98.70;;;;;;5077939;28;20039;-77
2022/06/29 01:42:40;;;;;;;3.55;2.30;;;17.10;98.80;;;;;;5079033;28;20441;-77
2022/06/29 01:45:06;;;;;;;4.53;1.90;;;17.10;98.90;;;;;;5079225;28;20061;-77
2022/06/29 01:47:32;;;;;;;4.20;1.80;;;17.10;99.00;;;;;;5062740;28;20074;-77
2022/06/29 01:49:58;;;;;;;2.40;1.50;;;17.10;99.00;;;;;;5045629;28;20530;-77
2022/06/29 01:52:23;;;;;;;3.22;1.70;;;17.10;99.10;;;;;;5095772;28;20043;-77
2022/06/29 01:54:49;;;;;;;4.57;1.80;;;17.10;99.30;;;;;;5062093;28;20374;-77
2022/06/29 01:57:15;;;;;;;4.90;2.15;;;17.10;99.30;;;;;;5078715;28;20035;-77
2022/06/29 01:59:40;;;;;;;2.47;1.60;;;17.10;99.40;;;;;;5062119;28;20093;-77
2022/06/29 02:02:07;;;;;;;4.10;1.80;;;17.10;99.50;;;;;;5078994;28;20507;-77
2022/06/29 02:04:33;;;;;;;2.33;1.77;;;17.10;99.90;;;;;;5062554;28;20072;-77
2022/06/29 02:06:59;;;;;;;4.28;1.52;;;17.10;99.80;;;;;;5062136;28;20082;-77
2022/06/29 02:09:25;;;;;;;5.32;2.30;;;17.10;99.80;;;;;;5078413;28;20040;-77
2022/06/29 02:11:51;;;;;;;3.60;1.92;;;17.10;99.90;;;;;;5078710;28;20040;-77
2022/06/29 02:14:16;;;;;;;3.00;1.65;;;17.10;99.90;;;;;;5078550;28;20047;-77
2022/06/29 02:16:42;;;;;;;2.95;1.75;;;17.10;99.90;;;;;;5061625;28;20057;-77
2022/06/29 02:19:09;;;;;;;4.38;1.73;;;17.10;99.90;;;;;;5078413;28;20031;-77
2022/06/29 02:21:35;;;;;;;4.18;1.75;;;17.10;99.90;;;;;;5078377;28;20075;-77
2022/06/29 02:24:00;;;;;;;4.45;1.65;;;17.10;99.90;;;;;;5095446;28;20089;-77
2022/06/29 02:26:26;;;;;;;2.97;1.90;;;17.10;99.90;;;;;;5061963;28;20036;-77
2022/06/29 02:28:52;;;;;;;6.13;1.70;;;17.10;99.90;;;;;;5061500;28;20039;-78
2022/06/29 02:36:46;;;;;;;2.70;1.75;;;17.10;99.90;;;;;;5094888;28;20113;-77
2022/06/29 02:39:11;;;;;;;3.42;2.10;;;17.10;99.90;;;;;;5045391;28;20039;-78
2022/06/29 02:41:37;;;;;;;2.88;1.90;;;17.10;99.90;;;;;;5061426;28;20411;-77
2022/06/29 02:44:03;;;;;;;4.15;2.03;;;17.00;99.90;;;;;;5062018;28;20037;-77
2022/06/29 02:46:29;;;;;;;5.50;1.98;;;17.10;99.90;;;;;;5061953;28;20490;-77
2022/06/29 02:48:54;;;;;;;3.08;1.90;;;17.00;99.90;;;;;;5061861;28;20509;-77
2022/06/29 02:51:20;;;;;;;4.13;2.00;;;17.00;99.90;;;;;;5062090;28;20043;-77
2022/06/29 02:53:46;;;;;;;4.10;2.33;;;17.00;99.90;;;;;;5066313;28;20118;-77
2022/06/29 02:56:11;;;;;;;3.47;2.17;;;17.00;99.90;;;;;;5082025;28;20047;-77
2022/06/29 02:58:37;;;;;;;3.22;1.75;;;17.00;99.90;;;;;;5082069;28;20047;-77
2022/06/29 03:01:03;;;;;;;5.10;2.03;;;16.90;99.90;;;;;;5048840;28;20134;-77
2022/06/29 03:03:28;;;;;;;3.78;2.00;;;16.90;99.90;;;;;;5065448;28;20495;-77
2022/06/29 03:05:54;;;;;;;5.13;2.03;;;16.90;99.90;;;;;;5099140;28;20047;-77
2022/06/29 03:08:20;;;;;;;3.00;2.30;;;16.90;99.90;;;;;;5082190;28;20505;-77
2022/06/29 03:10:46;;;;;;;3.50;1.90;;;16.90;99.90;;;;;;5082508;28;20039;-77
2022/06/29 03:13:11;;;;;;;3.85;2.20;;;16.80;99.90;;;;;;5065810;28;20031;-77
2022/06/29 03:15:38;;;;;;;7.07;2.20;;;16.80;99.90;;;;;;5082785;28;20057;-77
2022/06/29 03:18:04;;;;;;;3.78;2.22;;;16.80;99.90;;;;;;5082261;28;20440;-77
2022/06/29 03:20:33;;;;;;;3.92;2.33;;;16.70;99.90;;;;;;5099401;28;20036;-77
2022/06/29 03:22:59;;;;;;;3.40;2.00;;;16.70;99.90;;;;;;5081976;28;20085;-77
2022/06/29 03:25:24;;;;;;;4.50;2.17;;;16.60;99.90;;;;;;5048564;28;20376;-77
2022/06/29 03:27:50;;;;;;;3.05;2.10;;;16.60;99.90;;;;;;5098895;28;20032;-77
2022/06/29 03:30:18;;;;;;;2.67;2.20;;;16.50;99.90;;;;;;5098449;28;20039;-77
2022/06/29 03:32:43;;;;;;;3.67;2.15;;;16.50;99.90;;;;;;5081842;28;20043;-77
2022/06/29 03:35:09;;;;;;;4.95;2.38;;;16.50;99.90;;;;;;5081688;28;20510;-77
2022/06/29 03:37:35;;;;;;;4.70;2.60;;;16.40;99.90;;;;;;5081714;28;20042;-77
2022/06/29 03:40:01;;;;;;;3.03;2.30;;;16.40;99.90;;;;;;5081467;28;20475;-77
2022/06/29 03:42:27;;;;;;;2.85;2.30;;;16.40;99.90;;;;;;5064920;28;20503;-77
2022/06/29 03:44:54;;;;;;;3.47;2.50;;;16.30;99.90;;;;;;5064932;28;20113;-77
2022/06/29 03:47:20;;;;;;;4.10;2.55;;;16.30;99.90;;;;;;5082079;28;20168;-78
2022/06/29 03:49:45;;;;;;;3.15;2.30;;;16.30;99.90;;;;;;5081957;28;20496;-77
2022/06/29 03:52:11;;;;;;;4.10;2.35;;;16.20;99.90;;;;;;5065155;28;20040;-77
2022/06/29 03:54:37;;;;;;;2.88;2.30;;;16.20;99.90;;;;;;5081513;28;20491;-77
2022/06/29 03:57:03;;;;;;;3.50;2.45;;;16.20;99.90;;;;;;5064962;28;20495;-77
2022/06/29 03:59:28;;;;;;;7.32;2.45;;;16.20;99.90;;;;;;5064416;28;20036;-77
2022/06/29 04:01:54;;;;;;;3.72;2.20;;;16.20;99.90;;;;;;5081933;28;20051;-77
2022/06/29 04:04:20;;;;;;;5.93;2.70;;;16.20;99.90;;;;;;5064246;28;20455;-77
2022/06/29 04:06:45;;;;;;;3.55;2.35;;;16.10;99.90;;;;;;5047989;28;20043;-77
2022/06/29 04:09:11;;;;;;;5.22;2.80;;;16.10;99.90;;;;;;5048094;28;20115;-77
2022/06/29 04:11:48;;;;;;;3.85;2.90;;;16.10;99.90;;;;;;5064509;28;20046;-77
2022/06/29 04:14:18;;;;;;;4.53;2.38;;;16.10;99.90;;;;;;5097970;28;20092;-77
2022/06/29 04:16:44;;;;;;;4.95;2.28;;;16.10;99.90;;;;;;5064734;28;20035;-77
2022/06/29 04:19:10;;;;;;;4.00;2.63;;;16.10;99.90;;;;;;5098392;28;20035;-77
2022/06/29 04:21:36;;;;;;;6.18;2.70;;;16.10;99.90;;;;;;5097647;28;20195;-77
2022/06/29 04:24:02;;;;;;;4.50;2.80;;;16.10;99.90;;;;;;5064403;28;20118;-77
2022/06/29 04:26:27;;;;;;;4.55;2.70;;;16.10;99.90;;;;;;5080792;28;20402;-77
2022/06/29 04:28:53;;;;;;;4.55;3.00;;;16.10;99.90;;;;;;5064512;28;20047;-77
2022/06/29 04:31:19;;;;;;;4.35;2.70;;;16.10;99.90;;;;;;5080616;28;20032;-77
2022/06/29 04:33:44;;;;;;;3.58;2.40;;;16.00;99.90;;;;;;5048176;28;20081;-78
2022/06/29 04:36:10;;;;;;;3.78;2.53;;;16.00;99.90;;;;;;5063876;28;20406;-77
2022/06/29 04:38:36;;;;;;;4.82;2.60;;;16.10;99.90;;;;;;5081307;28;20040;-77
2022/06/29 04:41:02;;;;;;;6.43;3.30;;;16.10;99.90;;;;;;5081205;28;20040;-77
2022/06/29 04:43:29;;;;;;;4.13;2.80;;;16.10;99.90;;;;;;5081269;28;20172;-77
2022/06/29 04:48:40;;;;;;;5.65;2.92;;;16.10;99.90;;;;;;5083159;28;20134;-77
2022/06/29 04:51:05;;;;;;;3.47;2.70;;;16.10;99.90;;;;;;5080973;28;20391;-77
2022/06/29 04:53:31;;;;;;;4.03;2.92;;;16.20;99.90;;;;;;5080542;28;20126;-77
2022/06/29 04:55:57;;;;;;;4.38;2.60;;;16.20;99.90;;;;;;5063496;28;20071;-77
2022/06/29 04:58:22;;;;;;;3.50;2.78;;;16.20;99.90;;;;;;5080567;28;20075;-77
2022/06/29 05:00:48;;;;;;;3.75;2.90;;;16.30;99.90;;;;;;5064018;28;20122;-78
2022/06/29 05:03:14;;;;;;;6.10;3.45;;;16.30;99.90;;;;;;5097086;28;20418;-77
2022/06/29 05:05:40;;;;;;;4.82;2.83;;;16.30;99.90;;;;;;5079771;28;20555;-77
2022/06/29 05:08:06;;;;;;;7.05;3.33;;;16.30;99.90;;;;;;5063107;28;20031;-77
2022/06/29 05:10:32;;;;;;;3.65;3.03;;;16.40;99.90;;;;;;5097328;28;20028;-77
2022/06/29 05:12:58;;;;;;;5.15;3.40;;;16.40;99.90;;;;;;5046706;28;20433;-77
2022/06/29 05:15:24;;;;;;;4.90;3.33;;;16.50;99.90;;;;;;5079893;28;20040;-77
2022/06/29 05:17:50;;;;;;;8.05;3.88;;;16.50;99.90;;;;;;5064156;28;20091;-77
2022/06/29 05:20:16;;;;;;;4.65;3.35;;;16.60;99.90;;;;;;5080672;28;20040;-77
2022/06/29 05:22:41;;;;;;;3.78;3.00;;;16.60;99.90;;;;;;5080764;28;20044;-77
2022/06/29 05:25:07;;;;;;;4.05;3.15;;;16.60;99.90;;;;;;5080548;28;20074;-77
2022/06/29 05:27:33;;;;;;;4.20;2.85;;;16.70;99.90;;;;;;5096499;28;20075;-77
2022/06/29 05:29:59;;;;;;;4.35;3.50;;;16.70;99.90;;;;;;5097619;28;20104;-77
2022/06/29 05:32:25;;;;;;;4.68;3.40;;;16.80;99.90;;;;;;5079668;28;20044;-77
2022/06/29 05:34:51;;;;;;;5.47;3.83;;;16.80;99.90;;;;;;5097244;28;20094;-77
2022/06/29 05:37:17;;;;;;;3.55;3.22;;;16.90;99.90;;;;;;5096754;28;20065;-77
2022/06/29 05:39:44;;;;;;;4.78;3.15;;;17.00;99.90;;;;;;5062249;28;20046;-77
2022/06/29 05:42:12;;;;;;;4.45;3.00;;;17.10;99.90;;;;;;5034850;28;20049;-77
2022/06/29 05:44:38;;;;;;;3.60;3.08;;;17.10;99.90;;;;;;5035570;28;20057;-77
2022/06/29 05:47:04;;;;;;;5.38;4.28;;;17.20;99.90;;;;;;5002201;28;20060;-78
2022/06/29 05:49:30;;;;;;;3.97;3.05;;;17.20;99.90;;;;;;5018315;28;20095;-77
2022/06/29 05:51:56;;;;;;;4.13;3.00;;;17.30;99.90;;;;;;5002527;28;20045;-77
2022/06/29 05:54:21;;;;;;;3.80;2.97;;;17.40;99.90;;;;;;5018163;28;20045;-77
2022/06/29 05:56:47;;;;;;;3.85;2.85;;;17.40;99.90;;;;;;5018419;28;20052;-77
2022/06/29 05:59:13;;;;;;;4.70;2.50;;;17.50;99.90;;;;;;5034788;28;20406;-77
2022/06/29 06:01:38;;;;;;;4.22;2.92;;;17.60;99.90;;;;;;5017616;28;20527;-77
2022/06/29 06:04:04;;;;;;;7.22;3.25;;;17.70;99.90;;;;;;5017987;28;20048;-77
2022/06/29 06:06:30;;;;;;;5.18;2.90;;;17.70;99.90;;;;;;5018062;28;20167;-77
2022/06/29 06:08:56;;;;;;;4.05;3.00;;;17.80;99.90;;;;;;5017984;28;20068;-77
2022/06/29 06:11:21;;;;;;;4.32;2.80;;;17.90;99.90;;;;;;5017506;28;20041;-77
2022/06/29 06:13:47;;;;;;;5.03;2.83;;;18.00;99.90;;;;;;5081376;28;20062;-77
2022/06/29 06:16:13;;;;;;;6.05;2.83;;;18.10;99.90;;;;;;5078522;28;20484;-77
2022/06/29 06:18:39;;;;;;;5.38;3.10;;;18.20;99.90;;;;;;5062109;28;20035;-77
2022/06/29 06:21:05;;;;;;;5.07;3.08;;;18.20;99.90;;;;;;5078907;28;20039;-77
2022/06/29 06:23:31;;;;;;;4.72;2.85;;;18.30;99.90;;;;;;5095718;28;20039;-77
2022/06/29 06:25:56;;;;;;;5.72;2.63;;;18.40;99.90;;;;;;5061277;28;20441;-77
2022/06/29 06:28:22;;;;;;;7.57;3.10;;;18.50;99.90;;;;;;5062041;28;20486;-77
2022/06/29 06:30:48;;;;;;;3.75;2.88;;;18.60;99.90;;;;;;5078657;28;20036;-77
2022/06/29 06:33:13;;;;;;;3.65;2.88;;;18.80;99.90;;;;;;5094616;28;20052;-77
2022/06/29 06:35:39;;;;;;;4.60;3.10;;;18.90;99.90;;;;;;5078286;28;20078;-77
2022/06/29 06:38:05;;;;;;;4.78;3.00;;;19.00;99.90;;;;;;5044658;28;20036;-77
2022/06/29 06:43:15;;;;;;;3.58;2.63;;;19.40;99.90;;;;;;5094818;28;20048;-78
2022/06/29 06:45:42;;;;;;;6.13;2.92;;;19.50;99.90;;;;;;5078454;28;20035;-77
2022/06/29 06:48:08;;;;;;;6.38;2.75;;;19.70;99.90;;;;;;5045564;28;20417;-78
2022/06/29 06:50:34;;;;;;;4.88;2.65;;;19.80;99.90;;;;;;5078616;28;20482;-78
2022/06/29 06:52:59;;;;;;;4.43;2.78;;;20.00;99.90;;;;;;5078333;28;20036;-77
2022/06/29 06:55:25;;;;;;;4.70;2.75;;;20.20;99.90;;;;;;5062095;28;20071;-77
2022/06/29 06:57:51;;;;;;;4.18;2.42;;;20.30;99.90;;;;;;5078020;28;20039;-77
2022/06/29 07:00:17;;;;;;;3.58;2.33;;;20.50;99.90;;;;;;5061163;28;20039;-77
2022/06/29 07:02:42;;;;;;;4.93;2.72;;;20.60;99.90;;;;;;5077893;28;20066;-77
2022/06/29 07:05:08;;;;;;;4.25;2.47;;;20.70;99.90;;;;;;5077898;28;20061;-79
2022/06/29 07:07:34;;;;;;;5.60;3.15;;;20.80;99.90;;;;;;5077974;28;20043;-77
2022/06/29 07:10:00;;;;;;;2.58;2.30;;;21.00;99.90;;;;;;5078200;28;20051;-77
2022/06/29 07:12:26;;;;;;;4.47;2.20;;;21.10;99.90;;;;;;5077629;28;20036;-77
2022/06/29 07:14:52;;;;;;;3.50;2.67;;;21.30;99.90;;;;;;5077865;28;20035;-77
2022/06/29 07:17:18;;;;;;;4.38;2.30;;;21.40;99.80;;;;;;5078294;28;20047;-78
2022/06/29 07:19:43;;;;;;;3.88;2.38;;;21.50;99.60;;;;;;5077894;28;20035;-78
2022/06/29 07:22:09;;;;;;;2.78;2.08;;;21.70;99.50;;;;;;5061250;28;20076;-77
2022/06/29 07:24:35;;;;;;;4.75;2.05;;;21.80;99.30;;;;;;5094742;28;20436;-77
2022/06/29 07:27:00;;;;;;;3.90;2.13;;;22.00;99.30;;;;;;5077867;28;20499;-77
2022/06/29 07:29:26;;;;;;;4.72;2.30;;;22.10;98.90;;;;;;5077802;28;20122;-77
2022/06/29 07:31:52;;;;;;;3.80;2.10;;;22.20;98.40;;;;;;5094691;28;20039;-77
2022/06/29 07:34:18;;;;;;;2.78;1.95;;;22.30;98.00;;;;;;5060716;28;20047;-78
2022/06/29 07:36:44;;;;;;;3.20;2.28;;;22.50;97.50;;;;;;5060694;28;20043;-78
2022/06/29 07:39:09;;;;;;;3.30;1.88;;;22.60;98.00;;;;;;5064179;28;20036;-78
2022/06/29 07:41:38;;;;;;;5.57;2.15;;;22.90;97.60;;;;;;5081694;28;20123;-78
2022/06/29 07:44:04;;;;;;;2.63;1.98;;;23.20;97.10;;;;;;5081696;28;20492;-78
2022/06/29 07:46:30;;;;;;;3.97;2.22;;;23.50;96.50;;;;;;5081731;28;20047;-78
2022/06/29 07:48:56;;;;;;;6.43;2.50;;;23.80;96.10;;;;;;5098186;28;20092;-78
2022/06/29 07:51:22;;;;;;;2.67;1.70;;;24.00;94.80;;;;;;5064165;28;20473;-78
2022/06/29 07:53:48;;;;;;;4.45;1.67;;;24.20;94.80;;;;;;5064551;28;20404;-78
2022/06/29 07:56:14;;;;;;;3.50;1.63;;;24.40;95.40;;;;;;5080939;28;20047;-78
2022/06/29 07:58:39;;;;;;;2.75;1.63;;;24.60;95.00;;;;;;5048515;28;20032;-78
2022/06/29 08:01:05;;;;;;;4.80;1.75;;;24.50;94.10;;;;;;5081138;28;20430;-78
2022/06/29 08:03:31;;;;;;;2.55;1.50;;;24.60;93.60;;;;;;5080904;28;20063;-78
2022/06/29 08:05:58;;;;;;;2.97;1.80;;;24.70;93.70;;;;;;5081823;28;20126;-78
2022/06/29 08:08:24;;;;;;;4.82;1.80;;;24.90;93.20;;;;;;5064180;28;20571;-78
2022/06/29 08:10:50;;;;;;;4.07;1.90;;;24.90;92.30;;;;;;5080254;28;20126;-77
2022/06/29 08:13:16;;;;;;;3.03;1.77;;;24.90;91.50;;;;;;5081192;28;20039;-78
2022/06/29 08:15:43;;;;;;;3.95;1.63;;;24.90;92.10;;;;;;5064418;28;20039;-78
2022/06/29 08:18:08;;;;;;;3.20;1.85;;;25.00;91.20;;;;;;5081204;28;20043;-78
2022/06/29 08:20:34;;;;;;;2.53;1.67;;;25.10;90.90;;;;;;5097281;28;20174;-77
2022/06/29 08:23:00;;;;;;;4.03;1.58;;;25.30;89.80;;;;;;5047023;28;20040;-78
2022/06/29 08:25:26;;;;;;;6.47;1.90;;;25.40;88.80;;;;;;5064059;28;20036;-78
2022/06/29 08:27:52;;;;;;;3.38;1.75;;;25.50;89.00;;;;;;5064638;28;20043;-78
2022/06/29 08:30:18;;;;;;;4.55;1.67;;;25.60;88.90;;;;;;5097574;28;20043;-78
2022/06/29 08:32:44;;;;;;;2.15;1.48;;;25.80;90.10;;;;;;5079984;28;20123;-78
2022/06/29 08:35:11;;;;;;;3.55;1.70;;;26.00;89.20;;;;;;5080185;28;20048;-78
2022/06/29 08:37:38;;;;;;;3.53;1.67;;;26.10;87.80;;;;;;5080249;28;20039;-77
2022/06/29 08:40:09;;;;;;;3.88;1.40;;;26.30;88.40;;;;;;5080717;28;20088;-78
2022/06/29 08:42:36;;;;;;;3.22;1.48;;;26.40;88.20;;;;;;5081446;28;20078;-78
2022/06/29 08:45:03;;;;;;;3.90;1.60;;;26.60;86.30;;;;;;5081051;28;20059;-78
2022/06/29 08:47:28;;;;;;;3.92;1.55;;;26.80;85.20;;;;;;5047200;28;20039;-78
2022/06/29 08:49:55;;;;;;;2.08;1.40;;;26.90;83.30;;;;;;5079650;28;20040;-78
2022/06/29 08:52:23;;;;;;;2.28;1.55;;;27.00;83.20;;;;;;5063840;28;20092;-77
2022/06/29 08:54:52;;;;;;;7.88;1.88;;;27.10;82.30;;;;;;5096729;28;20047;-78
2022/06/29 08:57:20;;;;;;;5.53;1.70;;;27.20;81.20;;;;;;5096717;28;20075;-77
2022/06/29 08:59:46;;;;;;;4.03;1.67;;;27.20;80.40;;;;;;5079303;28;20048;-77
2022/06/29 09:02:13;;;;;;;2.95;1.50;;;27.20;80.10;;;;;;5080413;28;20384;-78
2022/06/29 09:04:40;;;;;;;2.80;1.70;;;27.10;79.50;;;;;;5081142;28;20100;-78
2022/06/29 09:07:05;;;;;;;3.85;1.60;;;27.00;78.60;;;;;;5080260;28;20099;-78
2022/06/29 09:10:07;;;;;;;3.80;1.60;;;27.10;77.70;;;;;;5080644;28;20546;-78
2022/06/29 09:12:33;;;;;;;2.13;1.50;;;27.10;79.50;;;;;;5079715;28;20126;-78
2022/06/29 09:15:00;;;;;;;3.13;1.60;;;27.10;79.30;;;;;;5063665;28;20555;-78
2022/06/29 09:17:30;;;;;;;4.07;1.90;;;27.20;79.70;;;;;;5080369;28;20039;-78
2022/06/29 09:19:56;;;;;;;2.50;1.60;;;27.30;78.90;;;;;;5079833;28;20472;-78
2022/06/29 09:22:22;;;;;;;2.50;1.50;;;27.40;77.50;;;;;;5063106;28;20502;-78
2022/06/29 09:24:49;;;;;;;3.42;1.55;;;27.50;76.70;;;;;;5079367;28;20036;-78
2022/06/29 09:27:15;;;;;;;4.32;2.00;;;27.60;76.70;;;;;;5096768;28;20039;-78
2022/06/29 09:29:43;;;;;;;2.47;1.70;;;27.70;77.10;;;;;;5096389;28;20116;-78
2022/06/29 09:32:14;;;;;;;3.20;1.58;;;27.80;77.40;;;;;;5096003;28;20090;-78
2022/06/29 09:34:51;;;;;;;3.45;1.80;;;27.80;77.90;;;;;;5096835;28;20419;-78
2022/06/29 09:37:21;;;;;;;4.65;1.65;;;27.90;78.20;;;;;;5096333;28;20089;-77
2022/06/29 09:39:48;;;;;;;3.20;1.75;;;28.00;77.30;;;;;;5062760;28;20035;-78
2022/06/29 09:42:18;;;;;;;3.60;1.60;;;27.90;76.10;;;;;;5079495;28;20043;-78
2022/06/29 09:44:45;;;;;;;2.88;1.60;;;27.80;75.00;;;;;;5078993;28;20192;-78
2022/06/29 09:47:17;;;;;;;3.13;1.50;;;27.70;75.20;;;;;;5078973;28;20040;-78
2022/06/29 09:49:56;;;;;;;3.10;1.60;;;27.60;75.20;;;;;;5096062;28;20092;-78
2022/06/29 09:52:24;;;;;;;3.85;1.80;;;27.60;73.10;;;;;;5078575;28;20397;-77
2022/06/29 09:54:58;;;;;;;3.05;1.60;;;27.70;74.20;;;;;;5095440;28;20039;-78
2022/06/29 09:57:27;;;;;;;2.88;1.45;;;27.80;74.30;;;;;;5079065;28;20039;-78
2022/06/29 10:02:45;;;;;;;2.03;1.50;;;27.80;73.60;;;;;;5095134;28;20118;-78
2022/06/29 10:05:20;;;;;;;3.40;1.67;;;28.00;72.40;;;;;;5045883;28;20049;-78
2022/06/29 10:07:55;;;;;;;;;;;28.10;71.40;;;;;;5079429;28;20077;-78
2022/06/29 10:10:23;;;;;;;3.40;1.75;;;28.20;70.50;;;;;;5079249;28;19920;-78
2022/06/29 10:15:57;;;;;;;3.53;1.80;;;28.40;73.70;;;;;;5096032;28;20429;-78
2022/06/29 10:18:31;;;;;;;2.95;1.70;;;28.50;72.00;;;;;;5096331;28;20039;-78
2022/06/29 10:20:58;;;;;;;2.90;1.60;;;28.60;71.00;;;;;;5095864;28;20040;-78
2022/06/29 10:23:46;;;;;;;2.33;1.50;;;28.50;69.90;;;;;;5079358;28;20477;-78
2022/06/29 10:28:57;;;;;;;3.13;1.70;;;28.40;69.90;;;;;;5095604;28;20046;-78
2022/06/29 10:31:54;;;;;;;3.00;2.05;;;28.30;67.90;;;;;;5079100;28;20044;-78
2022/06/29 10:34:32;;;;;;;2.47;1.70;;;28.30;68.50;;;;;;5095414;28;20047;-78
2022/06/29 10:37:13;;;;;;;3.90;1.80;;;28.30;67.80;;;;;;5079047;28;20079;-78
2022/06/29 10:39:45;;;;;;;2.67;1.80;;;28.20;66.80;;;;;;5063078;28;20039;-78
2022/06/29 10:45:20;;;;;;;7.30;1.50;;;28.20;65.80;;;;;;5095604;28;20209;-78
2022/06/29 10:48:11;;;;;;;3.53;1.42;;;28.10;66.80;;;;;;5078587;28;20050;-78
2022/06/29 10:50:38;;;;;;;3.15;1.60;;;28.00;67.80;;;;;;5078843;28;20036;-78
2022/06/29 10:53:12;;;;;;;2.38;1.60;;;28.00;64.80;;;;;;5061946;28;20511;-85
2022/06/29 10:55:42;;;;;;;3.38;1.73;;;27.90;65.00;;;;;;5096187;28;20104;-85
2022/06/29 10:58:09;;;;;;;3.30;1.60;;;27.80;67.50;;;;;;5096912;28;20031;-85
2022/06/29 11:00:43;;;;;;;3.08;1.77;;;27.80;71.00;;;;;;5080813;28;20063;-84
2022/06/29 11:03:14;;;;;;;5.78;1.80;;;27.80;71.80;;;;;;5095833;28;20380;-85
2022/06/29 11:12:01;;;;;;;3.67;1.70;;;27.80;71.50;;;;;;5079238;28;20445;-85
2022/06/29 11:13:59;;;;;;;1.95;1.50;;;27.80;70.20;;;;;;5100098;28;20051;-85
2022/06/29 11:16:36;;;;;;;3.05;1.60;;;27.90;67.60;;;;;;5083403;28;20044;-85
2022/06/29 11:19:03;;;;;;;4.90;1.50;;;27.90;66.70;;;;;;5083201;28;20051;-84
2022/06/29 11:21:30;;;;;;;2.17;1.80;;;27.90;68.50;;;;;;5100012;28;20047;-86
2022/06/29 11:24:04;;;;;;;3.47;1.60;;;28.00;67.90;;;;;;5099899;28;20046;-84
2022/06/29 11:26:34;;;;;;;4.38;1.80;;;28.10;65.80;;;;;;5100061;28;20052;-85
2022/06/29 11:29:01;;;;;;;2.15;1.63;;;28.10;65.00;;;;;;5083434;28;20051;-84
2022/06/29 11:31:27;;;;;;;2.67;1.50;;;28.10;64.30;;;;;;5082454;28;20032;-84
2022/06/29 11:33:54;;;;;;;2.33;1.70;;;28.20;66.20;;;;;;5082204;28;20514;-84
2022/06/29 11:36:25;;;;;;;3.53;2.13;;;28.30;67.30;;;;;;5082928;28;20046;-85
2022/06/29 11:39:03;;;;;;;2.53;1.73;;;28.30;65.60;;;;;;5083168;28;20032;-85
2022/06/29 11:44:31;;;;;;;2.80;2.30;;;28.20;67.50;;;;;;5084599;28;20126;-85
2022/06/29 11:46:57;;;;;;;3.00;2.13;;;28.20;67.00;;;;;;5082157;28;20035;-84
2022/06/29 11:49:39;;;;;;;3.67;2.40;;;28.20;67.70;;;;;;5099793;28;20040;-84
2022/06/29 11:52:12;;;;;;;4.57;2.10;;;28.20;68.00;;;;;;5055433;28;20036;-85
2022/06/29 11:54:47;;;;;;;2.65;2.20;;;28.30;69.30;;;;;;5067764;28;20483;-85
2022/06/29 11:57:17;;;;;;;4.03;2.13;;;28.50;69.50;;;;;;5099416;28;20039;-85
2022/06/29 11:59:44;;;;;;;4.57;2.30;;;28.60;70.60;;;;;;5083239;28;20519;-84
2022/06/29 12:02:15;;;;;;;3.30;2.10;;;28.70;70.30;;;;;;5099019;28;20048;-78
2022/06/29 12:04:42;;;;;;;3.65;1.95;;;28.70;70.20;;;;;;5098241;28;20047;-78
2022/06/29 12:07:19;;;;;;;3.45;2.33;;;28.80;68.90;;;;;;5097690;28;20044;-78
2022/06/29 12:09:46;;;;;;;5.70;2.45;;;28.80;69.70;;;;;;5098676;28;20043;-78
2022/06/29 12:12:12;;;;;;;3.13;2.30;;;28.90;70.10;;;;;;5080869;28;20522;-78
2022/06/29 12:14:39;;;;;;;2.65;2.10;;;28.80;69.90;;;;;;5065453;28;20036;-78
2022/06/29 12:17:06;;;;;;;2.67;2.10;;;28.80;70.80;;;;;;5081823;28;20039;-78
2022/06/29 12:19:32;;;;;;;2.90;2.20;;;28.80;70.80;;;;;;5081264;28;20185;-78
2022/06/29 12:21:58;;;;;;;4.35;2.20;;;28.90;71.40;;;;;;5081486;28;20131;-78
2022/06/29 12:24:25;;;;;;;4.20;2.72;;;28.90;71.50;;;;;;5097312;28;20044;-78
2022/06/29 12:26:51;;;;;;;2.45;2.20;;;29.10;71.30;;;;;;5081754;28;20064;-78
2022/06/29 12:29:17;;;;;;;3.08;2.58;;;29.20;70.40;;;;;;5082158;28;20099;-78
2022/06/29 12:31:44;;;;;;;5.25;2.80;;;29.40;71.10;;;;;;5081725;28;20436;-78
2022/06/29 12:34:11;;;;;;;4.18;2.53;;;29.60;69.60;;;;;;5076634;28;20048;-78
2022/06/29 12:36:38;;;;;;;3.08;2.33;;;29.80;68.70;;;;;;5079313;28;20074;-78
2022/06/29 12:39:04;;;;;;;2.80;2.42;;;30.00;67.40;;;;;;5079035;28;20411;-78
2022/06/29 12:41:31;;;;;;;2.80;2.38;;;30.20;66.60;;;;;;5095563;28;20109;-78
2022/06/29 12:43:59;;;;;;;6.00;2.30;;;30.40;67.20;;;;;;5095619;28;20047;-78
2022/06/29 12:46:27;;;;;;;3.70;2.53;;;30.50;67.00;;;;;;5078451;28;20047;-78
2022/06/29 12:48:54;;;;;;;3.45;2.33;;;30.40;67.40;;;;;;5095169;28;20044;-78
2022/06/29 12:51:19;;;;;;;2.42;2.00;;;30.40;65.70;;;;;;5060363;28;20059;-78
2022/06/29 12:53:45;;;;;;;4.35;2.70;;;30.40;65.80;;;;;;5060752;28;20036;-78
2022/06/29 12:56:11;;;;;;;4.35;2.00;;;30.50;64.10;;;;;;5077248;28;20048;-78
2022/06/29 12:58:36;;;;;;;3.17;2.20;;;30.70;63.40;;;;;;5077056;28;20383;-78
2022/06/29 13:01:02;;;;;;;6.55;2.10;;;30.80;64.10;;;;;;5077188;28;20032;-78
2022/06/29 13:03:28;;;;;;;4.28;2.45;;;31.10;62.90;;;;;;5093966;28;20046;-78
2022/06/29 13:05:54;;;;;;;3.03;2.10;;;31.30;62.70;;;;;;5077415;28;20047;-79
2022/06/29 13:08:19;;;;;;;2.80;2.28;;;31.60;63.40;;;;;;5077168;28;20090;-79
2022/06/29 13:10:45;;;;;;;5.50;2.00;;;31.70;61.20;;;;;;5077669;28;20241;-78
2022/06/29 13:13:11;;;;;;;2.63;1.75;;;31.80;61.10;;;;;;5044049;28;20040;-79
2022/06/29 13:15:36;;;;;;;3.22;2.20;;;31.90;60.00;;;;;;5077673;28;20040;-78
2022/06/29 13:18:02;;;;;;;3.83;2.20;;;32.20;58.30;;;;;;5077263;28;20039;-78